sensor_id;sensor_type;location;lat;lon;timestamp;P1;durP1;ratioP1;P2;durP2;ratioP2
35602;SDS011;21725;50.836;4.368;2022-12-10T00:00:49;50.97;;;25.67;;
35602;SDS011;21725;50.836;4.368;2022-12-10T00:03:30;55.72;;;28.50;;
35602;SDS011;21725;50.836;4.368;2022-12-10T00:06:15;58.65;;;28.63;;
35602;SDS011;21725;50.836;4.368;2022-12-10T00:09:05;49.85;;;26.67;;
35602;SDS011;21725;50.836;4.368;2022-12-10T00:18:07;50.42;;;24.90;;
35602;SDS011;21725;50.836;4.368;2022-12-10T00:20:50;44.72;;;22.27;;
35602;SDS011;21725;50.836;4.368;2022-12-10T00:23:48;45.92;;;24.40;;
35602;SDS011;21725;50.836;4.368;2022-12-10T00:29:47;41.42;;;23.60;;
35602;SDS011;21725;50.836;4.368;2022-12-10T00:35:51;44.13;;;24.48;;
35602;SDS011;21725;50.836;4.368;2022-12-10T00:38:30;47.45;;;23.55;;
35602;SDS011;21725;50.836;4.368;2022-12-10T00:44:05;49.25;;;25.45;;
35602;SDS011;21725;50.836;4.368;2022-12-10T00:46:44;45.45;;;24.60;;
35602;SDS011;21725;50.836;4.368;2022-12-10T00:52:35;44.60;;;23.95;;
35602;SDS011;21725;50.836;4.368;2022-12-10T00:55:06;52.80;;;25.77;;
35602;SDS011;21725;50.836;4.368;2022-12-10T00:57:53;45.83;;;25.45;;
35602;SDS011;21725;50.836;4.368;2022-12-10T01:00:50;50.25;;;27.08;;
35602;SDS011;21725;50.836;4.368;2022-12-10T01:03:47;48.53;;;25.05;;
35602;SDS011;21725;50.836;4.368;2022-12-10T01:06:32;51.85;;;27.13;;
35602;SDS011;21725;50.836;4.368;2022-12-10T01:09:08;46.53;;;28.38;;
35602;SDS011;21725;50.836;4.368;2022-12-10T01:11:47;43.45;;;22.83;;
35602;SDS011;21725;50.836;4.368;2022-12-10T01:14:28;44.45;;;24.35;;
35602;SDS011;21725;50.836;4.368;2022-12-10T01:17:06;45.08;;;25.33;;
35602;SDS011;21725;50.836;4.368;2022-12-10T01:22:36;49.28;;;24.27;;
35602;SDS011;21725;50.836;4.368;2022-12-10T01:28:45;50.28;;;26.52;;
35602;SDS011;21725;50.836;4.368;2022-12-10T01:31:19;49.22;;;26.17;;
35602;SDS011;21725;50.836;4.368;2022-12-10T01:34:00;51.38;;;26.95;;
35602;SDS011;21725;50.836;4.368;2022-12-10T01:37:16;53.30;;;29.27;;
35602;SDS011;21725;50.836;4.368;2022-12-10T01:39:54;53.00;;;28.10;;
35602;SDS011;21725;50.836;4.368;2022-12-10T01:42:43;48.63;;;26.00;;
35602;SDS011;21725;50.836;4.368;2022-12-10T01:51:19;45.83;;;23.92;;
35602;SDS011;21725;50.836;4.368;2022-12-10T01:54:28;48.72;;;27.02;;
35602;SDS011;21725;50.836;4.368;2022-12-10T02:00:26;58.60;;;30.67;;
35602;SDS011;21725;50.836;4.368;2022-12-10T02:03:29;52.03;;;29.45;;
35602;SDS011;21725;50.836;4.368;2022-12-10T02:09:10;40.73;;;21.50;;
35602;SDS011;21725;50.836;4.368;2022-12-10T02:21:25;55.92;;;30.55;;
35602;SDS011;21725;50.836;4.368;2022-12-10T02:24:36;46.57;;;24.13;;
35602;SDS011;21725;50.836;4.368;2022-12-10T02:30:14;51.88;;;29.45;;
35602;SDS011;21725;50.836;4.368;2022-12-10T02:32:54;55.53;;;31.52;;
35602;SDS011;21725;50.836;4.368;2022-12-10T02:35:43;53.13;;;29.70;;
35602;SDS011;21725;50.836;4.368;2022-12-10T02:38:32;53.78;;;29.48;;
35602;SDS011;21725;50.836;4.368;2022-12-10T02:41:14;64.50;;;38.47;;
35602;SDS011;21725;50.836;4.368;2022-12-10T02:44:03;52.78;;;30.77;;
35602;SDS011;21725;50.836;4.368;2022-12-10T02:46:55;54.65;;;32.15;;
35602;SDS011;21725;50.836;4.368;2022-12-10T02:49:33;58.25;;;34.70;;
35602;SDS011;21725;50.836;4.368;2022-12-10T02:52:37;55.30;;;31.15;;
35602;SDS011;21725;50.836;4.368;2022-12-10T02:55:05;63.85;;;34.78;;
35602;SDS011;21725;50.836;4.368;2022-12-10T02:57:54;57.92;;;34.67;;
35602;SDS011;21725;50.836;4.368;2022-12-10T03:00:55;60.90;;;34.00;;
35602;SDS011;21725;50.836;4.368;2022-12-10T03:04:01;65.18;;;36.08;;
35602;SDS011;21725;50.836;4.368;2022-12-10T03:06:33;68.47;;;35.05;;
35602;SDS011;21725;50.836;4.368;2022-12-10T03:09:29;49.40;;;28.55;;
35602;SDS011;21725;50.836;4.368;2022-12-10T03:15:35;74.45;;;39.58;;
35602;SDS011;21725;50.836;4.368;2022-12-10T03:18:38;71.40;;;37.15;;
35602;SDS011;21725;50.836;4.368;2022-12-10T03:21:38;70.57;;;37.22;;
35602;SDS011;21725;50.836;4.368;2022-12-10T03:24:12;70.82;;;35.35;;
35602;SDS011;21725;50.836;4.368;2022-12-10T03:27:00;71.32;;;36.22;;
35602;SDS011;21725;50.836;4.368;2022-12-10T03:29:50;81.30;;;39.20;;
35602;SDS011;21725;50.836;4.368;2022-12-10T03:32:43;83.25;;;37.60;;
35602;SDS011;21725;50.836;4.368;2022-12-10T03:35:19;74.25;;;38.00;;
35602;SDS011;21725;50.836;4.368;2022-12-10T03:40:21;73.47;;;34.30;;
35602;SDS011;21725;50.836;4.368;2022-12-10T03:43:27;74.68;;;34.83;;
35602;SDS011;21725;50.836;4.368;2022-12-10T03:46:15;72.95;;;34.78;;
35602;SDS011;21725;50.836;4.368;2022-12-10T03:49:11;82.03;;;37.67;;
35602;SDS011;21725;50.836;4.368;2022-12-10T03:51:51;75.38;;;35.63;;
35602;SDS011;21725;50.836;4.368;2022-12-10T03:57:49;79.72;;;37.13;;
35602;SDS011;21725;50.836;4.368;2022-12-10T04:00:35;87.13;;;37.25;;
35602;SDS011;21725;50.836;4.368;2022-12-10T04:03:03;85.85;;;39.55;;
35602;SDS011;21725;50.836;4.368;2022-12-10T04:05:31;86.40;;;36.80;;
35602;SDS011;21725;50.836;4.368;2022-12-10T04:08:06;89.72;;;40.50;;
35602;SDS011;21725;50.836;4.368;2022-12-10T04:10:37;92.45;;;40.17;;
35602;SDS011;21725;50.836;4.368;2022-12-10T04:16:31;72.68;;;38.35;;
35602;SDS011;21725;50.836;4.368;2022-12-10T04:19:19;91.05;;;41.17;;
35602;SDS011;21725;50.836;4.368;2022-12-10T04:21:52;86.85;;;38.28;;
35602;SDS011;21725;50.836;4.368;2022-12-10T04:25:00;81.28;;;36.70;;
35602;SDS011;21725;50.836;4.368;2022-12-10T04:30:52;72.47;;;35.53;;
35602;SDS011;21725;50.836;4.368;2022-12-10T04:33:38;79.43;;;36.05;;
35602;SDS011;21725;50.836;4.368;2022-12-10T04:36:28;69.93;;;32.75;;
35602;SDS011;21725;50.836;4.368;2022-12-10T04:39:31;69.32;;;32.72;;
35602;SDS011;21725;50.836;4.368;2022-12-10T04:42:26;69.72;;;32.45;;
35602;SDS011;21725;50.836;4.368;2022-12-10T04:45:24;68.95;;;31.30;;
35602;SDS011;21725;50.836;4.368;2022-12-10T04:48:05;72.32;;;35.13;;
35602;SDS011;21725;50.836;4.368;2022-12-10T04:50:52;72.47;;;33.13;;
35602;SDS011;21725;50.836;4.368;2022-12-10T04:53:32;72.30;;;32.50;;
35602;SDS011;21725;50.836;4.368;2022-12-10T04:56:06;73.35;;;33.97;;
35602;SDS011;21725;50.836;4.368;2022-12-10T04:58:34;93.10;;;37.45;;
35602;SDS011;21725;50.836;4.368;2022-12-10T05:38:31;80.63;;;32.40;;
35602;SDS011;21725;50.836;4.368;2022-12-10T05:41:26;70.95;;;31.33;;
35602;SDS011;21725;50.836;4.368;2022-12-10T05:44:11;75.82;;;34.30;;
35602;SDS011;21725;50.836;4.368;2022-12-10T05:46:56;71.80;;;33.35;;
35602;SDS011;21725;50.836;4.368;2022-12-10T05:52:50;123.90;;;33.67;;
35602;SDS011;21725;50.836;4.368;2022-12-10T05:55:24;87.43;;;33.17;;
35602;SDS011;21725;50.836;4.368;2022-12-10T05:57:59;88.10;;;33.30;;
35602;SDS011;21725;50.836;4.368;2022-12-10T06:00:54;94.28;;;35.47;;
35602;SDS011;21725;50.836;4.368;2022-12-10T06:06:51;73.43;;;33.70;;
35602;SDS011;21725;50.836;4.368;2022-12-10T06:09:17;71.30;;;32.10;;
35602;SDS011;21725;50.836;4.368;2022-12-10T06:11:56;163.93;;;38.10;;
35602;SDS011;21725;50.836;4.368;2022-12-10T06:14:31;90.72;;;34.10;;
35602;SDS011;21725;50.836;4.368;2022-12-10T06:17:10;126.28;;;33.53;;
35602;SDS011;21725;50.836;4.368;2022-12-10T06:19:45;87.68;;;32.85;;
35602;SDS011;21725;50.836;4.368;2022-12-10T06:25:28;83.07;;;34.17;;
35602;SDS011;21725;50.836;4.368;2022-12-10T06:28:13;87.75;;;33.00;;
35602;SDS011;21725;50.836;4.368;2022-12-10T06:34:20;86.15;;;32.00;;
35602;SDS011;21725;50.836;4.368;2022-12-10T06:36:56;92.70;;;33.83;;
35602;SDS011;21725;50.836;4.368;2022-12-10T06:39:49;104.93;;;32.85;;
35602;SDS011;21725;50.836;4.368;2022-12-10T06:42:41;91.57;;;30.27;;
35602;SDS011;21725;50.836;4.368;2022-12-10T06:45:30;92.80;;;30.00;;
35602;SDS011;21725;50.836;4.368;2022-12-10T06:48:00;68.20;;;29.25;;
35602;SDS011;21725;50.836;4.368;2022-12-10T06:50:57;96.03;;;33.17;;
35602;SDS011;21725;50.836;4.368;2022-12-10T06:57:01;148.93;;;35.35;;
35602;SDS011;21725;50.836;4.368;2022-12-10T06:59:37;80.28;;;34.88;;
35602;SDS011;21725;50.836;4.368;2022-12-10T07:02:26;113.07;;;36.13;;
35602;SDS011;21725;50.836;4.368;2022-12-10T07:05:23;159.82;;;37.10;;
35602;SDS011;21725;50.836;4.368;2022-12-10T07:08:19;133.30;;;34.90;;
35602;SDS011;21725;50.836;4.368;2022-12-10T07:17:18;117.30;;;25.93;;
35602;SDS011;21725;50.836;4.368;2022-12-10T07:22:54;137.50;;;35.03;;
35602;SDS011;21725;50.836;4.368;2022-12-10T07:25:22;97.50;;;32.30;;
35602;SDS011;21725;50.836;4.368;2022-12-10T07:31:12;147.23;;;34.83;;
35602;SDS011;21725;50.836;4.368;2022-12-10T07:34:05;247.75;;;41.45;;
35602;SDS011;21725;50.836;4.368;2022-12-10T07:36:52;115.28;;;35.63;;
35602;SDS011;21725;50.836;4.368;2022-12-10T07:39:43;92.07;;;35.42;;
35602;SDS011;21725;50.836;4.368;2022-12-10T07:42:17;104.25;;;34.25;;
35602;SDS011;21725;50.836;4.368;2022-12-10T07:47:29;138.75;;;36.67;;
35602;SDS011;21725;50.836;4.368;2022-12-10T07:50:20;94.65;;;34.20;;
35602;SDS011;21725;50.836;4.368;2022-12-10T07:53:06;220.02;;;39.53;;
35602;SDS011;21725;50.836;4.368;2022-12-10T07:55:59;175.25;;;36.13;;
35602;SDS011;21725;50.836;4.368;2022-12-10T07:58:25;94.15;;;32.95;;
35602;SDS011;21725;50.836;4.368;2022-12-10T08:01:17;98.97;;;30.75;;
35602;SDS011;21725;50.836;4.368;2022-12-10T08:04:15;78.50;;;30.05;;
35602;SDS011;21725;50.836;4.368;2022-12-10T08:06:47;115.80;;;31.67;;
35602;SDS011;21725;50.836;4.368;2022-12-10T08:09:31;144.75;;;34.85;;
35602;SDS011;21725;50.836;4.368;2022-12-10T08:12:00;123.72;;;33.63;;
35602;SDS011;21725;50.836;4.368;2022-12-10T08:14:28;86.53;;;28.48;;
35602;SDS011;21725;50.836;4.368;2022-12-10T08:20:33;81.00;;;32.80;;
35602;SDS011;21725;50.836;4.368;2022-12-10T08:23:28;103.75;;;29.88;;
35602;SDS011;21725;50.836;4.368;2022-12-10T08:25:59;92.93;;;29.48;;
35602;SDS011;21725;50.836;4.368;2022-12-10T08:28:36;83.22;;;30.50;;
35602;SDS011;21725;50.836;4.368;2022-12-10T08:34:41;115.30;;;29.15;;
35602;SDS011;21725;50.836;4.368;2022-12-10T08:37:45;148.52;;;32.58;;
35602;SDS011;21725;50.836;4.368;2022-12-10T08:40:30;85.63;;;31.45;;
35602;SDS011;21725;50.836;4.368;2022-12-10T08:43:00;72.95;;;29.77;;
35602;SDS011;21725;50.836;4.368;2022-12-10T08:45:44;76.60;;;30.02;;
35602;SDS011;21725;50.836;4.368;2022-12-10T08:48:27;77.13;;;29.95;;
35602;SDS011;21725;50.836;4.368;2022-12-10T08:51:26;104.68;;;42.25;;
35602;SDS011;21725;50.836;4.368;2022-12-10T08:54:02;78.05;;;33.92;;
35602;SDS011;21725;50.836;4.368;2022-12-10T08:56:47;71.75;;;28.52;;
35602;SDS011;21725;50.836;4.368;2022-12-10T08:59:24;74.45;;;29.55;;
35602;SDS011;21725;50.836;4.368;2022-12-10T09:02:16;169.70;;;70.82;;
35602;SDS011;21725;50.836;4.368;2022-12-10T09:04:57;100.38;;;35.63;;
35602;SDS011;21725;50.836;4.368;2022-12-10T09:07:33;84.60;;;33.92;;
35602;SDS011;21725;50.836;4.368;2022-12-10T09:10:23;81.72;;;34.17;;
35602;SDS011;21725;50.836;4.368;2022-12-10T09:13:00;88.32;;;34.38;;
35602;SDS011;21725;50.836;4.368;2022-12-10T09:18:36;82.60;;;29.17;;
35602;SDS011;21725;50.836;4.368;2022-12-10T09:21:09;120.40;;;32.25;;
35602;SDS011;21725;50.836;4.368;2022-12-10T09:24:03;83.18;;;31.52;;
35602;SDS011;21725;50.836;4.368;2022-12-10T09:26:44;81.05;;;31.05;;
35602;SDS011;21725;50.836;4.368;2022-12-10T09:29:31;71.43;;;31.45;;
35602;SDS011;21725;50.836;4.368;2022-12-10T09:31:59;94.95;;;34.05;;
35602;SDS011;21725;50.836;4.368;2022-12-10T09:34:28;108.80;;;33.90;;
35602;SDS011;21725;50.836;4.368;2022-12-10T09:37:22;78.53;;;32.35;;
35602;SDS011;21725;50.836;4.368;2022-12-10T09:39:55;90.57;;;31.70;;
35602;SDS011;21725;50.836;4.368;2022-12-10T09:42:38;78.72;;;30.77;;
35602;SDS011;21725;50.836;4.368;2022-12-10T09:48:36;92.25;;;34.10;;
35602;SDS011;21725;50.836;4.368;2022-12-10T09:51:34;74.70;;;32.60;;
35602;SDS011;21725;50.836;4.368;2022-12-10T09:54:18;75.47;;;32.95;;
35602;SDS011;21725;50.836;4.368;2022-12-10T09:56:51;73.10;;;31.63;;
35602;SDS011;21725;50.836;4.368;2022-12-10T09:59:29;71.13;;;31.85;;
35602;SDS011;21725;50.836;4.368;2022-12-10T10:04:53;79.88;;;31.40;;
35602;SDS011;21725;50.836;4.368;2022-12-10T10:07:29;69.20;;;29.08;;
35602;SDS011;21725;50.836;4.368;2022-12-10T10:16:09;75.13;;;34.13;;
35602;SDS011;21725;50.836;4.368;2022-12-10T10:24:33;68.50;;;31.13;;
35602;SDS011;21725;50.836;4.368;2022-12-10T10:27:15;64.13;;;27.42;;
35602;SDS011;21725;50.836;4.368;2022-12-10T10:30:01;60.95;;;28.75;;
35602;SDS011;21725;50.836;4.368;2022-12-10T10:35:26;58.30;;;27.23;;
35602;SDS011;21725;50.836;4.368;2022-12-10T10:38:04;62.42;;;28.60;;
35602;SDS011;21725;50.836;4.368;2022-12-10T10:40:55;60.33;;;25.95;;
35602;SDS011;21725;50.836;4.368;2022-12-10T10:43:44;76.38;;;30.13;;
35602;SDS011;21725;50.836;4.368;2022-12-10T10:46:14;46.63;;;22.65;;
35602;SDS011;21725;50.836;4.368;2022-12-10T10:51:33;60.60;;;26.98;;
35602;SDS011;21725;50.836;4.368;2022-12-10T10:54:08;58.03;;;25.38;;
35602;SDS011;21725;50.836;4.368;2022-12-10T10:56:40;65.28;;;27.92;;
35602;SDS011;21725;50.836;4.368;2022-12-10T11:24:11;71.03;;;29.83;;
35602;SDS011;21725;50.836;4.368;2022-12-10T11:32:39;67.47;;;28.17;;
35602;SDS011;21725;50.836;4.368;2022-12-10T11:35:39;68.82;;;29.92;;
35602;SDS011;21725;50.836;4.368;2022-12-10T11:43:16;82.68;;;38.92;;
35602;SDS011;21725;50.836;4.368;2022-12-10T11:56:26;77.28;;;34.72;;
35602;SDS011;21725;50.836;4.368;2022-12-10T12:15:16;67.25;;;27.83;;
35602;SDS011;21725;50.836;4.368;2022-12-10T12:17:53;72.40;;;32.25;;
35602;SDS011;21725;50.836;4.368;2022-12-10T12:20:32;58.38;;;26.63;;
35602;SDS011;21725;50.836;4.368;2022-12-10T12:23:24;59.88;;;26.42;;
35602;SDS011;21725;50.836;4.368;2022-12-10T12:25:53;62.30;;;27.35;;
35602;SDS011;21725;50.836;4.368;2022-12-10T12:28:41;75.03;;;31.95;;
35602;SDS011;21725;50.836;4.368;2022-12-10T12:31:19;51.22;;;23.98;;
35602;SDS011;21725;50.836;4.368;2022-12-10T12:33:59;68.15;;;27.92;;
35602;SDS011;21725;50.836;4.368;2022-12-10T12:36:29;59.42;;;25.58;;
35602;SDS011;21725;50.836;4.368;2022-12-10T12:44:59;61.25;;;26.05;;
35602;SDS011;21725;50.836;4.368;2022-12-10T12:50:24;53.15;;;23.58;;
35602;SDS011;21725;50.836;4.368;2022-12-10T12:52:58;54.10;;;23.77;;
35602;SDS011;21725;50.836;4.368;2022-12-10T13:00:38;65.28;;;28.33;;
35602;SDS011;21725;50.836;4.368;2022-12-10T13:03:19;58.80;;;26.48;;
35602;SDS011;21725;50.836;4.368;2022-12-10T13:06:10;56.92;;;23.83;;
35602;SDS011;21725;50.836;4.368;2022-12-10T13:08:58;52.45;;;23.92;;
35602;SDS011;21725;50.836;4.368;2022-12-10T13:12:18;55.28;;;24.00;;
35602;SDS011;21725;50.836;4.368;2022-12-10T13:15:01;58.00;;;21.65;;
35602;SDS011;21725;50.836;4.368;2022-12-10T13:17:40;51.22;;;23.73;;
35602;SDS011;21725;50.836;4.368;2022-12-10T13:20:47;56.33;;;25.83;;
35602;SDS011;21725;50.836;4.368;2022-12-10T13:36:13;53.45;;;24.25;;
35602;SDS011;21725;50.836;4.368;2022-12-10T13:38:54;50.88;;;24.95;;
35602;SDS011;21725;50.836;4.368;2022-12-10T13:41:22;48.95;;;23.52;;
35602;SDS011;21725;50.836;4.368;2022-12-10T13:44:31;47.97;;;23.30;;
35602;SDS011;21725;50.836;4.368;2022-12-10T13:47:04;45.70;;;22.75;;
35602;SDS011;21725;50.836;4.368;2022-12-10T13:52:33;62.83;;;29.55;;
35602;SDS011;21725;50.836;4.368;2022-12-10T13:58:18;67.80;;;32.05;;
35602;SDS011;21725;50.836;4.368;2022-12-10T14:00:58;46.90;;;21.83;;
35602;SDS011;21725;50.836;4.368;2022-12-10T14:03:39;66.70;;;31.10;;
35602;SDS011;21725;50.836;4.368;2022-12-10T14:06:11;61.80;;;29.67;;
35602;SDS011;21725;50.836;4.368;2022-12-10T14:08:41;66.13;;;32.05;;
35602;SDS011;21725;50.836;4.368;2022-12-10T14:11:36;64.68;;;31.13;;
35602;SDS011;21725;50.836;4.368;2022-12-10T14:14:05;74.22;;;35.70;;
35602;SDS011;21725;50.836;4.368;2022-12-10T14:16:36;59.15;;;27.77;;
35602;SDS011;21725;50.836;4.368;2022-12-10T14:19:05;67.38;;;33.88;;
35602;SDS011;21725;50.836;4.368;2022-12-10T14:21:33;50.53;;;24.58;;
35602;SDS011;21725;50.836;4.368;2022-12-10T14:24:01;48.10;;;22.77;;
35602;SDS011;21725;50.836;4.368;2022-12-10T14:26:29;52.85;;;25.10;;
35602;SDS011;21725;50.836;4.368;2022-12-10T14:29:00;56.70;;;25.27;;
35602;SDS011;21725;50.836;4.368;2022-12-10T14:31:36;41.60;;;18.88;;
35602;SDS011;21725;50.836;4.368;2022-12-10T14:34:08;51.00;;;24.40;;
35602;SDS011;21725;50.836;4.368;2022-12-10T14:36:39;45.22;;;20.38;;
35602;SDS011;21725;50.836;4.368;2022-12-10T14:39:17;47.80;;;23.45;;
35602;SDS011;21725;50.836;4.368;2022-12-10T14:41:46;51.85;;;27.00;;
35602;SDS011;21725;50.836;4.368;2022-12-10T14:44:14;58.63;;;30.33;;
35602;SDS011;21725;50.836;4.368;2022-12-10T14:46:41;50.50;;;26.27;;
35602;SDS011;21725;50.836;4.368;2022-12-10T14:49:08;55.85;;;25.45;;
35602;SDS011;21725;50.836;4.368;2022-12-10T14:51:41;47.88;;;25.23;;
35602;SDS011;21725;50.836;4.368;2022-12-10T14:54:23;54.45;;;28.40;;
35602;SDS011;21725;50.836;4.368;2022-12-10T14:56:51;50.50;;;26.20;;
35602;SDS011;21725;50.836;4.368;2022-12-10T14:59:19;52.60;;;26.55;;
35602;SDS011;21725;50.836;4.368;2022-12-10T15:02:12;46.35;;;25.65;;
35602;SDS011;21725;50.836;4.368;2022-12-10T15:04:54;44.80;;;22.17;;
35602;SDS011;21725;50.836;4.368;2022-12-10T15:07:24;50.00;;;22.38;;
35602;SDS011;21725;50.836;4.368;2022-12-10T15:09:56;46.72;;;22.05;;
35602;SDS011;21725;50.836;4.368;2022-12-10T15:12:28;46.35;;;22.30;;
35602;SDS011;21725;50.836;4.368;2022-12-10T15:14:59;47.50;;;21.63;;
35602;SDS011;21725;50.836;4.368;2022-12-10T15:20:38;57.25;;;25.55;;
35602;SDS011;21725;50.836;4.368;2022-12-10T15:23:30;60.38;;;24.65;;
35602;SDS011;21725;50.836;4.368;2022-12-10T15:28:27;44.58;;;21.92;;
35602;SDS011;21725;50.836;4.368;2022-12-10T15:33:38;49.75;;;25.10;;
35602;SDS011;21725;50.836;4.368;2022-12-10T15:38:56;46.78;;;21.60;;
35602;SDS011;21725;50.836;4.368;2022-12-10T15:44:01;49.63;;;22.85;;
35602;SDS011;21725;50.836;4.368;2022-12-10T15:46:30;39.90;;;19.33;;
35602;SDS011;21725;50.836;4.368;2022-12-10T15:48:56;48.42;;;21.55;;
35602;SDS011;21725;50.836;4.368;2022-12-10T15:51:21;39.88;;;20.90;;
35602;SDS011;21725;50.836;4.368;2022-12-10T15:53:47;49.00;;;23.85;;
35602;SDS011;21725;50.836;4.368;2022-12-10T15:56:13;47.22;;;20.65;;
35602;SDS011;21725;50.836;4.368;2022-12-10T15:58:39;40.15;;;18.88;;
35602;SDS011;21725;50.836;4.368;2022-12-10T16:01:05;42.95;;;19.30;;
35602;SDS011;21725;50.836;4.368;2022-12-10T16:03:33;45.35;;;19.70;;
35602;SDS011;21725;50.836;4.368;2022-12-10T16:05:59;37.58;;;19.13;;
35602;SDS011;21725;50.836;4.368;2022-12-10T16:08:26;38.92;;;19.60;;
35602;SDS011;21725;50.836;4.368;2022-12-10T16:10:54;41.45;;;20.30;;
35602;SDS011;21725;50.836;4.368;2022-12-10T16:13:27;39.88;;;20.10;;
35602;SDS011;21725;50.836;4.368;2022-12-10T16:15:57;46.13;;;22.48;;
35602;SDS011;21725;50.836;4.368;2022-12-10T16:18:30;43.47;;;21.02;;
35602;SDS011;21725;50.836;4.368;2022-12-10T16:20:56;44.42;;;22.27;;
35602;SDS011;21725;50.836;4.368;2022-12-10T16:23:22;45.13;;;21.77;;
35602;SDS011;21725;50.836;4.368;2022-12-10T16:25:47;39.55;;;19.48;;
35602;SDS011;21725;50.836;4.368;2022-12-10T16:28:15;35.95;;;19.88;;
35602;SDS011;21725;50.836;4.368;2022-12-10T16:30:48;43.17;;;21.27;;
35602;SDS011;21725;50.836;4.368;2022-12-10T16:33:15;48.53;;;21.23;;
35602;SDS011;21725;50.836;4.368;2022-12-10T16:35:48;46.88;;;24.17;;
35602;SDS011;21725;50.836;4.368;2022-12-10T16:38:15;47.47;;;23.45;;
35602;SDS011;21725;50.836;4.368;2022-12-10T16:40:42;45.90;;;21.63;;
35602;SDS011;21725;50.836;4.368;2022-12-10T16:43:14;58.30;;;29.40;;
35602;SDS011;21725;50.836;4.368;2022-12-10T16:45:44;74.22;;;35.97;;
35602;SDS011;21725;50.836;4.368;2022-12-10T16:48:10;55.15;;;29.10;;
35602;SDS011;21725;50.836;4.368;2022-12-10T16:50:36;44.38;;;22.23;;
35602;SDS011;21725;50.836;4.368;2022-12-10T16:53:03;39.25;;;20.55;;
35602;SDS011;21725;50.836;4.368;2022-12-10T16:55:43;36.80;;;20.65;;
35602;SDS011;21725;50.836;4.368;2022-12-10T16:58:09;43.03;;;21.35;;
35602;SDS011;21725;50.836;4.368;2022-12-10T17:24:08;41.50;;;20.65;;
35602;SDS011;21725;50.836;4.368;2022-12-10T17:26:38;44.45;;;21.83;;
35602;SDS011;21725;50.836;4.368;2022-12-10T17:31:39;40.90;;;23.35;;
35602;SDS011;21725;50.836;4.368;2022-12-10T17:34:05;38.75;;;22.20;;
35602;SDS011;21725;50.836;4.368;2022-12-10T17:36:32;38.72;;;19.77;;
35602;SDS011;21725;50.836;4.368;2022-12-10T17:38:58;51.15;;;24.25;;
35602;SDS011;21725;50.836;4.368;2022-12-10T17:41:24;47.58;;;23.45;;
35602;SDS011;21725;50.836;4.368;2022-12-10T17:43:50;44.42;;;21.85;;
35602;SDS011;21725;50.836;4.368;2022-12-10T17:46:17;41.80;;;22.00;;
35602;SDS011;21725;50.836;4.368;2022-12-10T17:48:46;42.10;;;23.92;;
35602;SDS011;21725;50.836;4.368;2022-12-10T17:51:12;36.03;;;23.08;;
35602;SDS011;21725;50.836;4.368;2022-12-10T17:53:38;39.78;;;23.38;;
35602;SDS011;21725;50.836;4.368;2022-12-10T17:56:05;40.20;;;24.10;;
35602;SDS011;21725;50.836;4.368;2022-12-10T17:58:37;38.58;;;20.85;;
35602;SDS011;21725;50.836;4.368;2022-12-10T18:01:04;43.35;;;22.92;;
35602;SDS011;21725;50.836;4.368;2022-12-10T18:03:30;33.25;;;20.35;;
35602;SDS011;21725;50.836;4.368;2022-12-10T18:05:56;37.50;;;20.45;;
35602;SDS011;21725;50.836;4.368;2022-12-10T18:08:22;38.95;;;23.73;;
35602;SDS011;21725;50.836;4.368;2022-12-10T18:10:48;59.72;;;24.48;;
35602;SDS011;21725;50.836;4.368;2022-12-10T18:13:15;44.53;;;24.40;;
35602;SDS011;21725;50.836;4.368;2022-12-10T18:15:41;36.25;;;21.65;;
35602;SDS011;21725;50.836;4.368;2022-12-10T18:18:07;40.35;;;24.10;;
35602;SDS011;21725;50.836;4.368;2022-12-10T18:20:35;39.60;;;21.90;;
35602;SDS011;21725;50.836;4.368;2022-12-10T18:23:04;41.00;;;19.70;;
35602;SDS011;21725;50.836;4.368;2022-12-10T18:25:32;36.90;;;21.42;;
35602;SDS011;21725;50.836;4.368;2022-12-10T18:28:03;41.95;;;21.67;;
35602;SDS011;21725;50.836;4.368;2022-12-10T18:30:40;38.72;;;21.77;;
35602;SDS011;21725;50.836;4.368;2022-12-10T18:33:08;36.97;;;21.92;;
35602;SDS011;21725;50.836;4.368;2022-12-10T18:35:37;36.22;;;21.77;;
35602;SDS011;21725;50.836;4.368;2022-12-10T18:38:03;33.88;;;20.83;;
35602;SDS011;21725;50.836;4.368;2022-12-10T18:40:31;39.05;;;20.90;;
35602;SDS011;21725;50.836;4.368;2022-12-10T18:42:57;52.95;;;29.65;;
35602;SDS011;21725;50.836;4.368;2022-12-10T18:45:24;41.90;;;25.15;;
35602;SDS011;21725;50.836;4.368;2022-12-10T18:47:49;55.92;;;31.30;;
35602;SDS011;21725;50.836;4.368;2022-12-10T18:50:19;55.90;;;31.77;;
35602;SDS011;21725;50.836;4.368;2022-12-10T18:52:48;37.10;;;21.25;;
35602;SDS011;21725;50.836;4.368;2022-12-10T18:55:14;34.35;;;20.90;;
35602;SDS011;21725;50.836;4.368;2022-12-10T18:57:41;44.33;;;26.98;;
35602;SDS011;21725;50.836;4.368;2022-12-10T19:02:57;45.22;;;26.42;;
35602;SDS011;21725;50.836;4.368;2022-12-10T19:05:30;53.17;;;32.78;;
35602;SDS011;21725;50.836;4.368;2022-12-10T19:07:58;34.33;;;20.17;;
35602;SDS011;21725;50.836;4.368;2022-12-10T19:10:24;35.75;;;18.67;;
35602;SDS011;21725;50.836;4.368;2022-12-10T19:12:50;32.67;;;17.77;;
35602;SDS011;21725;50.836;4.368;2022-12-10T19:15:17;34.20;;;22.45;;
35602;SDS011;21725;50.836;4.368;2022-12-10T19:17:46;31.15;;;18.83;;
35602;SDS011;21725;50.836;4.368;2022-12-10T19:20:17;34.13;;;21.23;;
35602;SDS011;21725;50.836;4.368;2022-12-10T19:22:48;28.67;;;17.27;;
35602;SDS011;21725;50.836;4.368;2022-12-10T19:25:15;29.33;;;18.27;;
35602;SDS011;21725;50.836;4.368;2022-12-10T19:27:41;32.10;;;17.77;;
35602;SDS011;21725;50.836;4.368;2022-12-10T19:30:28;30.27;;;18.85;;
35602;SDS011;21725;50.836;4.368;2022-12-10T19:32:53;26.77;;;15.70;;
35602;SDS011;21725;50.836;4.368;2022-12-10T19:35:20;32.47;;;17.23;;
35602;SDS011;21725;50.836;4.368;2022-12-10T19:37:49;28.15;;;16.42;;
35602;SDS011;21725;50.836;4.368;2022-12-10T19:40:18;28.98;;;17.00;;
35602;SDS011;21725;50.836;4.368;2022-12-10T19:42:46;32.03;;;17.60;;
35602;SDS011;21725;50.836;4.368;2022-12-10T19:45:13;33.88;;;18.90;;
35602;SDS011;21725;50.836;4.368;2022-12-10T19:47:40;28.48;;;17.55;;
35602;SDS011;21725;50.836;4.368;2022-12-10T19:50:06;39.85;;;19.08;;
35602;SDS011;21725;50.836;4.368;2022-12-10T19:52:34;33.38;;;20.13;;
35602;SDS011;21725;50.836;4.368;2022-12-10T19:55:00;35.28;;;19.98;;
35602;SDS011;21725;50.836;4.368;2022-12-10T19:57:26;29.40;;;18.60;;
35602;SDS011;21725;50.836;4.368;2022-12-10T19:59:51;28.15;;;16.65;;
35602;SDS011;21725;50.836;4.368;2022-12-10T20:02:17;34.83;;;18.73;;
35602;SDS011;21725;50.836;4.368;2022-12-10T20:04:43;38.85;;;21.52;;
35602;SDS011;21725;50.836;4.368;2022-12-10T20:07:09;33.40;;;19.00;;
35602;SDS011;21725;50.836;4.368;2022-12-10T20:09:35;31.27;;;18.38;;
35602;SDS011;21725;50.836;4.368;2022-12-10T20:12:00;32.97;;;19.08;;
35602;SDS011;21725;50.836;4.368;2022-12-10T20:14:26;33.90;;;19.42;;
35602;SDS011;21725;50.836;4.368;2022-12-10T20:16:52;32.92;;;19.00;;
35602;SDS011;21725;50.836;4.368;2022-12-10T20:19:20;42.92;;;20.98;;
35602;SDS011;21725;50.836;4.368;2022-12-10T20:21:47;27.38;;;17.35;;
35602;SDS011;21725;50.836;4.368;2022-12-10T20:24:13;29.23;;;17.98;;
35602;SDS011;21725;50.836;4.368;2022-12-10T20:26:40;30.08;;;18.15;;